createdAt,value
2024-02-13T00:01:59.428Z,4.82
2024-02-13T00:04:26.955Z,3.75
2024-02-13T00:06:57.024Z,4.38
2024-02-13T00:09:24.208Z,4.35
2024-02-13T00:11:52.441Z,4.10
2024-02-13T00:14:20.979Z,4.45
2024-02-13T00:16:48.533Z,3.78
2024-02-13T00:19:15.782Z,3.50
2024-02-13T00:21:44.560Z,3.60
2024-02-13T00:24:11.984Z,3.97
2024-02-13T00:26:39.570Z,3.85
2024-02-13T00:29:06.705Z,4.30
2024-02-13T00:31:35.204Z,4.18
2024-02-13T00:34:23.446Z,4.05
2024-02-13T00:36:51.544Z,4.38
2024-02-13T00:39:19.035Z,3.75
2024-02-13T00:41:46.435Z,4.40
2024-02-13T00:44:13.559Z,4.22
2024-02-13T00:46:40.712Z,4.13
2024-02-13T00:49:07.927Z,4.28
2024-02-13T00:51:34.984Z,4.43
2024-02-13T00:54:02.099Z,4.30
2024-02-13T00:56:29.563Z,3.70
2024-02-13T00:59:03.095Z,3.63
2024-02-13T01:01:31.107Z,4.45
2024-02-13T01:03:58.428Z,5.28
2024-02-13T01:06:25.567Z,4.05
2024-02-13T01:08:52.705Z,3.65
2024-02-13T01:11:19.878Z,4.45
2024-02-13T01:13:47.418Z,4.43
2024-02-13T01:16:15.470Z,4.40
2024-02-13T01:18:42.772Z,3.97
2024-02-13T01:21:12.852Z,4.90
2024-02-13T01:23:40.002Z,4.15
2024-02-13T01:26:07.335Z,4.97
2024-02-13T01:28:36.109Z,4.07
2024-02-13T01:31:03.795Z,4.95
2024-02-13T01:33:31.645Z,5.75
2024-02-13T01:35:59.136Z,4.85
2024-02-13T01:38:29.328Z,4.53
2024-02-13T01:40:56.526Z,4.07
2024-02-13T01:43:26.508Z,4.90
2024-02-13T01:45:54.273Z,4.65
2024-02-13T01:48:22.958Z,5.35
2024-02-13T01:50:51.362Z,5.25
2024-02-13T01:53:22.474Z,4.97
2024-02-13T01:55:51.530Z,4.88
2024-02-13T01:58:20.668Z,5.30
2024-02-13T02:00:50.137Z,5.55
2024-02-13T02:03:19.145Z,5.60
2024-02-13T02:05:46.278Z,6.25
2024-02-13T02:08:30.249Z,4.82
2024-02-13T02:11:00.695Z,5.97
2024-02-13T02:13:30.507Z,5.80
2024-02-13T02:16:12.792Z,5.95
2024-02-13T02:18:40.763Z,5.35
2024-02-13T02:21:09.263Z,6.20
2024-02-13T02:23:36.830Z,5.40
2024-02-13T02:26:18.963Z,6.28
2024-02-13T02:29:03.674Z,4.82
2024-02-13T02:31:33.244Z,5.65
2024-02-13T02:34:00.871Z,6.63
2024-02-13T02:36:28.563Z,5.25
2024-02-13T02:38:55.730Z,6.32
2024-02-13T02:41:23.117Z,6.22
2024-02-13T02:43:50.371Z,6.03
2024-02-13T02:46:17.952Z,7.20
2024-02-13T02:48:45.474Z,7.35
2024-02-13T02:51:12.577Z,7.28
2024-02-13T02:53:39.870Z,7.25
2024-02-13T02:56:07.492Z,6.93
2024-02-13T02:58:35.076Z,6.88
2024-02-13T03:01:03.462Z,6.55
2024-02-13T03:03:32.827Z,6.28
2024-02-13T03:06:00.287Z,6.80
2024-02-13T03:08:29.298Z,6.60
2024-02-13T03:10:56.392Z,7.25
2024-02-13T03:13:23.977Z,8.10
2024-02-13T03:15:51.237Z,6.47
2024-02-13T03:18:21.385Z,7.82
2024-02-13T03:20:48.602Z,6.95
2024-02-13T03:23:17.468Z,7.28
2024-02-13T03:25:45.114Z,6.85
2024-02-13T03:28:32.128Z,6.88
2024-02-13T03:31:00.577Z,6.47
2024-02-13T03:33:27.830Z,6.82
2024-02-13T03:35:55.349Z,7.68
2024-02-13T03:38:22.647Z,7.13
2024-02-13T03:40:49.690Z,5.90
2024-02-13T03:43:16.751Z,6.55
2024-02-13T03:45:43.744Z,6.68
2024-02-13T03:48:23.939Z,7.70
2024-02-13T03:50:51.039Z,7.18
2024-02-13T03:53:18.134Z,7.10
2024-02-13T03:55:45.670Z,8.05
2024-02-13T03:58:13.978Z,6.65
2024-02-13T04:00:41.765Z,7.75
2024-02-13T04:03:08.972Z,7.65
2024-02-13T04:05:38.971Z,6.43
2024-02-13T04:08:07.761Z,6.75
2024-02-13T04:10:36.822Z,7.20
2024-02-13T04:13:14.101Z,6.53
2024-02-13T04:15:41.379Z,6.47
2024-02-13T04:18:09.398Z,7.75
2024-02-13T04:20:40.804Z,6.65
2024-02-13T04:23:08.658Z,7.40
2024-02-13T04:25:36.930Z,7.10
2024-02-13T04:28:05.099Z,7.50
2024-02-13T04:30:33.245Z,7.25
2024-02-13T04:33:00.744Z,8.13
2024-02-13T04:35:28.312Z,7.85
2024-02-13T04:37:55.629Z,8.05
2024-02-13T04:40:23.346Z,8.07
2024-02-13T04:43:10.611Z,9.40
2024-02-13T04:45:38.713Z,8.15
2024-02-13T04:48:06.648Z,8.05
2024-02-13T04:50:34.401Z,6.57
2024-02-13T04:53:01.732Z,6.75
2024-02-13T04:55:28.963Z,7.30
2024-02-13T04:57:58.261Z,7.20
2024-02-13T05:00:29.865Z,6.72
2024-02-13T05:03:15.922Z,6.50
2024-02-13T05:06:05.409Z,6.03
2024-02-13T05:08:32.662Z,6.25
2024-02-13T05:10:59.699Z,6.70
2024-02-13T05:13:26.881Z,8.00
2024-02-13T05:15:54.068Z,5.78
2024-02-13T05:18:22.270Z,6.25
2024-02-13T05:20:49.819Z,6.97
2024-02-13T05:23:17.328Z,8.32
2024-02-13T05:25:46.884Z,7.30
2024-02-13T05:28:13.913Z,7.55
2024-02-13T05:30:40.995Z,7.45
2024-02-13T05:33:08.286Z,7.75
2024-02-13T05:35:39.311Z,6.82
2024-02-13T05:38:06.600Z,8.05
2024-02-13T05:40:36.506Z,7.50
2024-02-13T05:43:06.434Z,5.60
2024-02-13T05:45:33.505Z,6.57
2024-02-13T05:48:04.909Z,7.30
2024-02-13T05:50:32.287Z,6.57
2024-02-13T05:52:59.853Z,7.00
2024-02-13T05:55:26.811Z,6.78
2024-02-13T05:57:54.415Z,6.63
2024-02-13T06:00:25.749Z,7.75
2024-02-13T06:02:56.771Z,7.75
2024-02-13T06:05:24.518Z,6.85
2024-02-13T06:07:52.977Z,7.32
2024-02-13T06:10:23.244Z,6.70
2024-02-13T06:12:50.402Z,6.72
2024-02-13T06:15:17.898Z,6.97
2024-02-13T06:17:46.087Z,8.02
2024-02-13T06:20:14.134Z,6.68
2024-02-13T06:22:43.026Z,8.13
2024-02-13T06:25:12.496Z,6.07
2024-02-13T06:27:41.832Z,6.25
2024-02-13T06:30:09.448Z,8.05
2024-02-13T06:32:46.462Z,7.38
2024-02-13T06:35:14.435Z,6.50
2024-02-13T06:38:01.342Z,7.65
2024-02-13T06:40:29.253Z,7.97
2024-02-13T06:42:56.353Z,7.28
2024-02-13T06:45:23.384Z,8.15
2024-02-13T06:47:50.779Z,7.82
2024-02-13T06:50:18.181Z,8.48
2024-02-13T06:52:45.531Z,7.95
2024-02-13T06:55:14.539Z,6.85
2024-02-13T06:57:58.336Z,7.65
2024-02-13T07:00:27.294Z,7.88
2024-02-13T07:02:56.298Z,6.60
2024-02-13T07:05:24.167Z,7.30
2024-02-13T07:07:51.504Z,7.97
2024-02-13T07:10:19.150Z,7.90
2024-02-13T07:13:05.256Z,7.88
2024-02-13T07:15:33.622Z,8.38
2024-02-13T07:18:02.032Z,8.57
2024-02-13T07:20:31.025Z,7.90
2024-02-13T07:22:58.872Z,8.02
2024-02-13T07:25:26.181Z,7.93
2024-02-13T07:27:54.091Z,7.85
2024-02-13T07:30:21.376Z,7.57
2024-02-13T07:32:48.732Z,7.68
2024-02-13T07:35:16.619Z,8.57
2024-02-13T07:37:59.919Z,8.10
2024-02-13T07:40:27.638Z,7.88
2024-02-13T07:42:54.959Z,8.20
2024-02-13T07:45:22.581Z,9.05
2024-02-13T07:48:07.573Z,7.95
2024-02-13T07:50:36.470Z,8.00
2024-02-13T07:53:06.021Z,7.28
2024-02-13T07:55:33.364Z,6.57
2024-02-13T07:58:12.619Z,6.75
2024-02-13T08:00:40.499Z,7.60
2024-02-13T08:03:08.232Z,6.82
2024-02-13T08:05:38.348Z,7.13
2024-02-13T08:08:10.537Z,7.70
2024-02-13T08:10:44.448Z,8.25
2024-02-13T08:13:11.533Z,8.13
2024-02-13T08:15:39.076Z,7.32
2024-02-13T08:18:06.412Z,7.15
2024-02-13T08:20:34.483Z,8.07
2024-02-13T08:23:03.939Z,8.18
2024-02-13T08:25:31.368Z,7.70
2024-02-13T08:27:59.954Z,7.68
2024-02-13T08:30:27.465Z,7.88
2024-02-13T08:32:54.947Z,7.47
2024-02-13T08:35:23.003Z,7.63
2024-02-13T08:37:52.617Z,6.80
2024-02-13T08:40:20.852Z,7.95
2024-02-13T08:42:49.523Z,7.47
2024-02-13T08:45:17.190Z,7.93
2024-02-13T08:47:58.600Z,7.15
2024-02-13T08:50:26.165Z,6.20
2024-02-13T08:53:01.108Z,8.73
2024-02-13T08:55:31.045Z,6.97
2024-02-13T08:57:59.274Z,8.38
2024-02-13T09:00:30.306Z,8.70
2024-02-13T09:03:12.775Z,7.82
2024-02-13T09:05:42.411Z,8.23
2024-02-13T09:08:09.628Z,6.60
2024-02-13T09:10:37.317Z,7.35
2024-02-13T09:13:04.616Z,7.90
2024-02-13T09:15:32.035Z,7.03
2024-02-13T09:18:01.510Z,7.25
2024-02-13T09:20:29.975Z,6.68
2024-02-13T09:22:58.324Z,7.10
2024-02-13T09:25:25.542Z,7.25
2024-02-13T09:27:54.181Z,7.63
2024-02-13T09:30:21.479Z,7.75
2024-02-13T09:32:49.764Z,8.00
2024-02-13T09:35:19.293Z,7.43
2024-02-13T09:37:57.222Z,8.10
2024-02-13T09:40:28.984Z,8.10
2024-02-13T09:42:57.136Z,8.75
2024-02-13T09:45:24.336Z,7.85
2024-02-13T09:47:51.665Z,9.27
2024-02-13T09:50:20.092Z,8.95
2024-02-13T09:52:49.210Z,7.95
2024-02-13T09:55:16.816Z,7.90
2024-02-13T09:57:48.235Z,8.93
2024-02-13T10:00:18.080Z,7.75
2024-02-13T10:02:48.708Z,8.27
2024-02-13T10:05:18.557Z,8.85
2024-02-13T10:07:46.703Z,8.50
2024-02-13T10:10:14.229Z,8.23
2024-02-13T10:12:59.365Z,7.30
2024-02-13T10:15:38.105Z,7.22
2024-02-13T10:18:12.953Z,8.25
2024-02-13T10:20:44.200Z,7.55
2024-02-13T10:23:21.081Z,8.25
2024-02-13T10:25:48.304Z,8.43
2024-02-13T10:28:18.655Z,8.23
2024-02-13T10:30:50.420Z,7.60
2024-02-13T10:33:17.838Z,8.00
2024-02-13T10:35:45.599Z,8.48
2024-02-13T10:38:14.092Z,8.82
2024-02-13T10:40:44.561Z,8.98
2024-02-13T10:43:13.877Z,7.82
2024-02-13T10:45:42.154Z,8.32
2024-02-13T10:48:34.152Z,8.75
2024-02-13T10:51:03.927Z,8.63
2024-02-13T10:53:34.026Z,9.27
2024-02-13T10:56:04.087Z,8.38
2024-02-13T10:58:34.421Z,8.48
2024-02-13T11:01:04.846Z,9.82
2024-02-13T11:03:34.691Z,7.00
2024-02-13T11:06:02.718Z,8.93
2024-02-13T11:08:30.126Z,8.23
2024-02-13T11:10:57.290Z,7.05
2024-02-13T11:13:27.305Z,8.02
2024-02-13T11:15:59.539Z,8.43
2024-02-13T11:18:52.036Z,8.93
2024-02-13T11:21:21.444Z,8.02
2024-02-13T11:24:13.633Z,8.48
2024-02-13T11:26:40.848Z,9.25
2024-02-13T11:29:25.744Z,8.93
2024-02-13T11:31:59.268Z,8.25
2024-02-13T11:34:42.887Z,9.43
2024-02-13T11:37:28.383Z,7.80
2024-02-13T11:39:58.168Z,8.90
2024-02-13T11:42:33.820Z,7.78
2024-02-13T11:45:13.326Z,7.35
2024-02-13T11:47:51.161Z,8.75
2024-02-13T11:50:20.899Z,7.60
2024-02-13T11:52:49.613Z,8.88
2024-02-13T11:55:18.352Z,8.52
2024-02-13T11:57:48.735Z,9.05
2024-02-13T12:00:23.441Z,7.70
2024-02-13T12:03:08.116Z,8.65
2024-02-13T12:05:35.210Z,7.70
2024-02-13T12:08:02.278Z,7.75
2024-02-13T12:10:30.074Z,8.65
2024-02-13T12:12:57.508Z,8.70
2024-02-13T12:15:24.773Z,8.35
2024-02-13T12:17:56.818Z,8.73
2024-02-13T12:20:29.376Z,9.23
2024-02-13T12:23:01.530Z,8.80
2024-02-13T12:25:28.717Z,8.40
2024-02-13T12:28:01.873Z,9.45
2024-02-13T12:30:30.380Z,9.10
2024-02-13T12:33:07.859Z,8.05
2024-02-13T12:35:40.854Z,8.43
2024-02-13T12:38:16.202Z,7.32
2024-02-13T12:40:45.905Z,7.75
2024-02-13T12:43:17.473Z,6.78
2024-02-13T12:45:47.842Z,7.25
2024-02-13T12:48:15.846Z,7.47
2024-02-13T12:50:43.392Z,7.18
2024-02-13T12:53:11.130Z,7.65
2024-02-13T12:55:44.624Z,6.43
2024-02-13T12:58:14.192Z,7.75
2024-02-13T13:00:47.778Z,6.72
2024-02-13T13:03:16.156Z,7.88
2024-02-13T13:05:44.785Z,7.72
2024-02-13T13:08:16.525Z,6.95
2024-02-13T13:10:44.659Z,7.00
2024-02-13T13:13:18.725Z,6.20
2024-02-13T13:15:47.532Z,6.93
2024-02-13T13:18:21.337Z,8.20
2024-02-13T13:20:49.877Z,7.30
2024-02-13T13:23:17.321Z,6.28
2024-02-13T13:25:47.197Z,7.25
2024-02-13T13:28:17.684Z,6.20
2024-02-13T13:30:50.292Z,7.05
2024-02-13T13:33:20.744Z,6.57
2024-02-13T13:35:48.801Z,6.63
2024-02-13T13:38:18.732Z,6.70
2024-02-13T13:40:49.524Z,6.80
2024-02-13T13:43:16.933Z,6.78
2024-02-13T13:45:58.302Z,6.43
2024-02-13T13:48:31.511Z,6.28
2024-02-13T13:51:01.719Z,6.22
2024-02-13T13:53:28.844Z,6.05
2024-02-13T13:55:56.706Z,5.85
2024-02-13T13:58:26.845Z,6.57
2024-02-13T14:00:57.088Z,6.25
2024-02-13T14:03:24.924Z,5.72
2024-02-13T14:05:52.322Z,6.55
2024-02-13T14:08:19.832Z,6.57
2024-02-13T14:10:47.963Z,5.63
2024-02-13T14:13:15.477Z,6.20
2024-02-13T14:15:42.663Z,6.43
2024-02-13T14:18:13.898Z,5.63
2024-02-13T14:20:42.009Z,5.28
2024-02-13T14:23:10.427Z,5.72
2024-02-13T14:25:38.490Z,5.85
2024-02-13T14:28:08.721Z,6.32
2024-02-13T14:30:36.322Z,5.82
2024-02-13T14:33:07.287Z,5.95
2024-02-13T14:35:35.692Z,6.20
2024-02-13T14:38:16.931Z,7.25
2024-02-13T14:40:50.287Z,6.15
2024-02-13T14:43:17.683Z,5.72
2024-02-13T14:45:47.310Z,4.78
2024-02-13T14:48:17.402Z,6.30
2024-02-13T14:50:48.471Z,5.75
2024-02-13T14:53:22.368Z,6.22
2024-02-13T14:55:50.358Z,6.20
2024-02-13T14:58:26.063Z,5.30
2024-02-13T15:00:58.759Z,4.93
2024-02-13T15:03:26.294Z,4.55
2024-02-13T15:05:54.631Z,6.43
2024-02-13T15:08:25.401Z,6.38
2024-02-13T15:10:53.391Z,5.45
2024-02-13T15:13:21.674Z,5.05
2024-02-13T15:15:52.233Z,6.13
2024-02-13T15:18:40.072Z,5.43
2024-02-13T15:21:15.512Z,6.25
2024-02-13T15:23:43.160Z,5.97
2024-02-13T15:26:11.621Z,6.47
2024-02-13T15:28:38.710Z,5.53
2024-02-13T15:31:05.810Z,5.65
2024-02-13T15:33:43.660Z,5.63
2024-02-13T15:36:29.191Z,5.63
2024-02-13T15:39:15.098Z,6.35
2024-02-13T15:42:01.320Z,6.03
2024-02-13T15:44:47.087Z,6.47
2024-02-13T15:47:14.178Z,6.75
2024-02-13T15:49:45.253Z,5.28
2024-02-13T15:52:15.795Z,5.57
2024-02-13T15:54:43.260Z,6.05
2024-02-13T15:57:13.968Z,5.90
2024-02-13T15:59:45.070Z,6.85
2024-02-13T16:02:15.879Z,5.80
2024-02-13T16:04:44.262Z,6.03
2024-02-13T16:07:12.157Z,7.45
2024-02-13T16:09:39.900Z,7.00
2024-02-13T16:12:07.364Z,5.75
2024-02-13T16:14:34.766Z,7.13
2024-02-13T16:17:02.453Z,6.85
2024-02-13T16:19:31.693Z,7.30
2024-02-13T16:21:59.469Z,6.63
2024-02-13T16:24:26.928Z,7.63
2024-02-13T16:26:54.876Z,6.13
2024-02-13T16:29:24.916Z,6.97
2024-02-13T16:31:56.030Z,6.82
2024-02-13T16:34:23.411Z,6.70
2024-02-13T16:36:50.569Z,5.57
2024-02-13T16:39:19.267Z,6.20
2024-02-13T16:41:47.302Z,6.97
2024-02-13T16:44:19.024Z,5.82
2024-02-13T16:46:48.900Z,6.50
2024-02-13T16:49:16.122Z,6.20
2024-02-13T16:51:43.331Z,7.38
2024-02-13T16:54:11.316Z,8.35
2024-02-13T16:56:38.622Z,6.55
2024-02-13T16:59:07.019Z,7.20
2024-02-13T17:01:34.325Z,7.32
2024-02-13T17:04:02.347Z,6.60
2024-02-13T17:06:33.578Z,6.68
2024-02-13T17:09:02.030Z,6.68
2024-02-13T17:11:30.248Z,5.80
2024-02-13T17:13:57.458Z,6.45
2024-02-13T17:16:24.441Z,5.65
2024-02-13T17:18:51.871Z,5.22
2024-02-13T17:21:19.877Z,5.22
2024-02-13T17:23:46.977Z,5.32
2024-02-13T17:26:21.397Z,5.03
2024-02-13T17:28:48.728Z,5.70
2024-02-13T17:31:16.505Z,5.80
2024-02-13T17:33:44.945Z,5.80
2024-02-13T17:36:12.833Z,6.13
2024-02-13T17:38:40.045Z,6.00
2024-02-13T17:41:07.771Z,5.93
2024-02-13T17:43:35.674Z,5.20
2024-02-13T17:46:02.872Z,5.78
2024-02-13T17:48:30.373Z,4.65
2024-02-13T17:50:57.826Z,5.68
2024-02-13T17:53:24.953Z,5.45
2024-02-13T17:55:52.271Z,5.05
2024-02-13T17:58:19.420Z,5.20
2024-02-13T18:00:46.567Z,5.40
2024-02-13T18:03:13.857Z,6.57
2024-02-13T18:05:41.428Z,5.63
2024-02-13T18:08:29.023Z,4.88
2024-02-13T18:10:56.128Z,5.47
2024-02-13T18:13:23.592Z,4.95
2024-02-13T18:15:51.763Z,5.80
2024-02-13T18:18:19.446Z,5.30
2024-02-13T18:20:47.313Z,6.18
2024-02-13T18:23:16.952Z,6.90
2024-02-13T18:25:45.131Z,5.30
2024-02-13T18:28:14.683Z,5.53
2024-02-13T18:30:42.213Z,4.57
2024-02-13T18:33:09.746Z,5.07
2024-02-13T18:35:49.206Z,5.30
2024-02-13T18:38:16.714Z,5.10
2024-02-13T18:52:48.824Z,5.05
2024-02-13T19:05:33.117Z,5.18
2024-02-13T19:08:59.619Z,5.70
2024-02-13T19:25:36.016Z,5.55
2024-02-13T19:28:18.371Z,5.13
2024-02-13T19:31:37.510Z,6.28
2024-02-13T19:35:01.866Z,4.15
2024-02-13T19:37:33.265Z,5.57
2024-02-13T19:40:00.541Z,6.45
2024-02-13T19:42:27.820Z,5.63
2024-02-13T19:44:54.984Z,5.88
2024-02-13T19:47:22.499Z,5.60
2024-02-13T19:50:09.722Z,6.07
2024-02-13T19:52:56.852Z,5.18
2024-02-13T19:55:44.559Z,5.50
2024-02-13T19:58:31.621Z,6.00
2024-02-13T20:01:19.009Z,5.10
2024-02-13T20:04:06.595Z,5.78
2024-02-13T20:06:54.185Z,5.13
2024-02-13T20:09:21.265Z,5.60
2024-02-13T20:11:48.513Z,5.05
2024-02-13T20:14:15.949Z,5.68
2024-02-13T20:16:43.548Z,4.55
2024-02-13T20:19:11.122Z,6.30
2024-02-13T20:21:40.915Z,5.88
2024-02-13T20:24:09.657Z,5.28
2024-02-13T20:26:39.827Z,5.88
2024-02-13T20:29:07.573Z,5.38
2024-02-13T20:31:35.359Z,5.47
2024-02-13T20:34:02.845Z,5.78
2024-02-13T20:36:30.628Z,5.03
2024-02-13T20:39:11.228Z,5.70
2024-02-13T20:41:42.497Z,5.80
2024-02-13T20:44:10.867Z,6.32
2024-02-13T20:46:39.302Z,5.85
2024-02-13T20:49:14.067Z,5.78
2024-02-13T20:51:44.433Z,5.65
2024-02-13T20:54:16.992Z,5.90
2024-02-13T20:56:49.959Z,5.50
2024-02-13T20:59:19.087Z,5.18
2024-02-13T21:01:49.226Z,5.50
2024-02-13T21:04:16.837Z,6.10
2024-02-13T21:06:45.192Z,5.97
2024-02-13T21:09:13.635Z,5.75
2024-02-13T21:11:42.327Z,5.10
2024-02-13T21:14:11.433Z,5.00
2024-02-13T21:16:38.530Z,5.15
2024-02-13T21:19:11.020Z,5.43
2024-02-13T21:22:01.120Z,6.22
2024-02-13T21:24:29.845Z,5.28
2024-02-13T21:26:56.972Z,4.72
2024-02-13T21:29:24.138Z,5.25
2024-02-13T21:31:51.154Z,5.47
2024-02-13T21:34:21.696Z,5.65
2024-02-13T21:36:48.927Z,5.03
2024-02-13T21:39:16.327Z,5.30
2024-02-13T21:41:43.670Z,5.32
2024-02-13T21:44:10.737Z,5.45
2024-02-13T21:46:38.569Z,5.85
2024-02-13T21:49:07.970Z,5.63
2024-02-13T21:51:35.343Z,5.10
2024-02-13T21:54:02.676Z,6.30
2024-02-13T21:56:30.067Z,5.88
2024-02-13T21:58:57.116Z,6.95
2024-02-13T22:01:25.239Z,5.25
2024-02-13T22:03:52.366Z,5.85
2024-02-13T22:06:22.362Z,5.95
2024-02-13T22:08:49.808Z,5.07
2024-02-13T22:11:16.832Z,6.00
2024-02-13T22:13:44.056Z,4.97
2024-02-13T22:16:11.247Z,6.07
2024-02-13T22:18:38.682Z,6.07
2024-02-13T22:21:06.838Z,5.70
2024-02-13T22:23:34.480Z,5.38
2024-02-13T22:26:03.124Z,6.28
2024-02-13T22:28:30.632Z,5.95
2024-02-13T22:30:57.989Z,5.95
2024-02-13T22:33:33.342Z,6.22
2024-02-13T22:36:00.659Z,6.15
2024-02-13T22:38:27.978Z,5.45
2024-02-13T22:40:55.360Z,5.18
2024-02-13T22:43:22.438Z,5.18
2024-02-13T22:45:49.620Z,5.22
2024-02-13T22:48:16.688Z,5.82
2024-02-13T22:50:43.951Z,5.00
2024-02-13T22:53:10.973Z,5.40
2024-02-13T22:55:39.832Z,6.57
2024-02-13T22:58:07.120Z,6.60
2024-02-13T23:00:50.794Z,5.25
2024-02-13T23:03:19.199Z,6.45
2024-02-13T23:05:51.475Z,6.22
2024-02-13T23:08:18.968Z,5.75
2024-02-13T23:10:46.382Z,5.70
2024-02-13T23:13:18.206Z,5.68
2024-02-13T23:15:45.394Z,6.32
2024-02-13T23:18:13.800Z,6.55
2024-02-13T23:20:41.845Z,6.07
2024-02-13T23:23:10.066Z,6.55
2024-02-13T23:25:37.545Z,5.75
2024-02-13T23:28:13.762Z,5.88
2024-02-13T23:30:44.512Z,5.82
2024-02-13T23:33:13.442Z,5.78
2024-02-13T23:35:41.072Z,7.07
2024-02-13T23:38:09.470Z,5.68
2024-02-13T23:40:37.680Z,6.50
2024-02-13T23:43:07.281Z,5.50
2024-02-13T23:45:35.078Z,6.15
2024-02-13T23:48:02.354Z,4.72
2024-02-13T23:50:30.614Z,6.65
2024-02-13T23:52:58.104Z,6.32
2024-02-13T23:55:27.513Z,6.50
2024-02-13T23:57:55.034Z,7.05
